KMCN

Middle Georgia Regional Airport

Macon, Georgia, USA
METAR KMCN 220453Z AUTO 24003KT 10SM CLR 24/23 A2985 RMK AO2 SLP102 T02390228 403440217
Observed Flight Rules
Jun-22 @ 04:53 UTC (44 minutes ago) Visual Flight Rules
Wind Visibility Clouds
240° at 3 knots 10 miles
  • Clear skies
Temperatures Readings
Current 24°C / 75°F
Dewpoint 23°C / 73°F
Humidity 94%
Altimeter 29.85" Hg
Pressure 1010.2 hPa
Elevation 109
METAR KMCN 220453Z AUTO 24003KT 10SM CLR 24/23 A2985 RMK AO2 SLP102 T02390228 403440217
Observed Flight Rules
Jun-22 @ 04:53 UTC
(44 minutes ago)
VFR
Wind Visibility
240° at 3 knots 10 miles
Clouds
  • Clear skies
Temperature Dewpoint
24°C / 75°F 23°C / 73°F
Humidity Altimeter Pressure
94% 29.85" Hg 1010.2 hPa